Time;durP1;ratioP1;P1;durP2;ratioP2;P2;SDS_P1;SDS_P2;PMS_P1;PMS_P2;Temp;Humidity;BMP_temperature;BMP_pressure;BME280_temperature;BME280_humidity;BME280_pressure;Samples;Min_cycle;Max_cycle;Signal;HPM_P1;HPM_P2
2022/10/22 00:00:52;;;;;;;59.97;55.80;;;;;;;13.51;100.00;100837.91;5031901;28;20490;-45
2022/10/22 00:03:20;;;;;;;56.23;52.60;;;;;;;13.51;100.00;100837.91;5032514;28;20429;-46
2022/10/22 00:05:48;;;;;;;58.57;54.50;;;;;;;13.51;100.00;100845.13;5032282;28;20475;-45
2022/10/22 00:08:16;;;;;;;57.73;53.73;;;;;;;13.50;100.00;100846.97;5032641;28;20416;-45
2022/10/22 00:10:43;;;;;;;64.70;59.60;;;;;;;13.50;100.00;100849.66;5031719;28;20476;-47
2022/10/22 00:13:12;;;;;;;59.17;54.90;;;;;;;13.51;100.00;100845.13;5032461;28;20502;-50
2022/10/22 00:15:40;;;;;;;59.07;55.00;;;;;;;13.51;100.00;100850.47;5032343;28;20486;-47
2022/10/22 00:18:08;;;;;;;59.53;55.23;;;;;;;13.50;100.00;100846.97;5032217;28;20466;-47
2022/10/22 00:20:35;;;;;;;58.27;53.80;;;;;;;13.50;100.00;100849.66;5041674;28;20907;-48
2022/10/22 00:23:03;;;;;;;61.03;56.37;;;;;;;13.51;100.00;100856.66;5051998;28;20428;-47
2022/10/22 00:25:31;;;;;;;66.13;60.53;;;;;;;13.50;100.00;100865.72;5052156;28;20894;-46
2022/10/22 00:27:58;;;;;;;66.43;60.83;;;;;;;13.48;100.00;100862.44;5052047;28;20435;-46
2022/10/22 00:30:28;;;;;;;60.90;56.40;;;;;;;13.48;100.00;100866.97;5051347;28;20532;-48
2022/10/22 00:32:56;;;;;;;61.53;56.80;;;;;;;13.47;100.00;100874.19;5051668;28;20428;-48
2022/10/22 00:35:24;;;;;;;66.10;60.70;;;;;;;13.47;100.00;100881.44;5052083;28;20431;-46
2022/10/22 00:37:51;;;;;;;63.80;59.03;;;;;;;13.47;100.00;100876.06;5051792;28;20435;-48
2022/10/22 00:40:19;;;;;;;63.20;58.20;;;;;;;13.47;100.00;100876.06;5051377;28;20577;-45
2022/10/22 00:42:46;;;;;;;58.87;54.70;;;;;;;13.46;100.00;100875.25;5051650;28;20431;-50
2022/10/22 00:45:18;;;;;;;61.90;57.20;;;;;;;13.47;100.00;100879.53;5051537;28;20980;-50
2022/10/22 00:47:51;;;;;;;64.50;58.73;;;;;;;13.47;100.00;100879.53;5052038;28;20485;-47
2022/10/22 00:50:23;;;;;;;64.83;59.30;;;;;;;13.49;100.00;100884.72;5050531;28;20463;-45
2022/10/22 00:52:51;;;;;;;67.47;61.53;;;;;;;13.51;100.00;100880.78;5042565;28;20492;-46
2022/10/22 00:55:20;;;;;;;62.83;57.73;;;;;;;13.52;100.00;100885.13;5051695;28;20485;-47
2022/10/22 00:57:48;;;;;;;60.50;56.10;;;;;;;13.52;100.00;100879.75;5051407;28;20887;-47
2022/10/22 01:00:17;;;;;;;66.60;61.07;;;;;;;13.53;100.00;100885.94;5051113;28;20859;-48
2022/10/22 01:02:45;;;;;;;64.27;59.10;;;;;;;13.55;100.00;100886.53;5051314;28;20427;-46
2022/10/22 01:05:14;;;;;;;60.00;55.40;;;;;;;13.51;100.00;100880.78;5051454;28;20471;-48
2022/10/22 01:07:45;;;;;;;64.03;58.93;;;;;;;13.51;100.00;100886.13;5051553;28;20469;-47
2022/10/22 01:10:24;;;;;;;64.30;58.93;;;;;;;13.50;100.00;100886.38;5050944;28;20472;-46
2022/10/22 01:13:04;;;;;;;61.30;56.60;;;;;;;13.49;100.00;100874.81;5051284;28;20920;-46
2022/10/22 01:15:40;;;;;;;63.03;57.67;;;;;;;13.49;100.00;100876.66;5051582;28;20462;-45
2022/10/22 01:18:14;;;;;;;63.10;58.13;;;;;;;13.50;100.00;100878.31;5051409;28;20422;-48
2022/10/22 01:20:59;;;;;;;61.77;57.17;;;;;;;13.50;100.00;100878.31;5050593;28;20466;-47
2022/10/22 01:24:02;;;;;;;60.40;55.73;;;;;;;13.51;100.00;100872.75;5051347;28;20427;-46
2022/10/22 01:26:43;;;;;;;62.83;58.20;;;;;;;13.52;100.00;100874.41;5035023;28;20564;-46
2022/10/22 01:29:16;;;;;;;63.83;58.93;;;;;;;13.53;100.00;100873.34;5050743;28;20516;-47
2022/10/22 01:31:49;;;;;;;63.97;59.27;;;;;;;13.54;100.00;100872.31;5051402;28;20513;-46
2022/10/22 01:34:18;;;;;;;63.03;57.77;;;;;;;13.56;100.00;100869.44;5051436;28;20439;-47
2022/10/22 01:36:48;;;;;;;61.77;56.87;;;;;;;13.57;100.00;100873.75;5051323;28;20843;-48
2022/10/22 01:39:17;;;;;;;64.70;59.70;;;;;;;13.58;100.00;100870.03;5050754;28;20516;-46
2022/10/22 01:41:45;;;;;;;69.10;63.30;;;;;;;13.60;100.00;100878.69;5050831;28;20447;-47
2022/10/22 01:44:29;;;;;;;65.40;60.17;;;;;;;13.63;100.00;100880.94;5051354;28;20431;-46
2022/10/22 01:47:10;;;;;;;66.93;61.40;;;;;;;13.66;100.00;100875.16;5051290;28;20939;-49
2022/10/22 01:49:56;;;;;;;72.67;65.77;;;;;;;13.65;100.00;100868.16;5050660;28;20463;-45
2022/10/22 01:52:31;;;;;;;69.63;63.47;;;;;;;13.64;100.00;100867.34;5051045;28;20462;-46
2022/10/22 01:55:07;;;;;;;71.50;65.30;;;;;;;13.64;100.00;100867.34;5051230;28;20504;-45
2022/10/22 01:57:44;;;;;;;66.30;61.07;;;;;;;13.63;100.00;100872.88;5051059;28;20430;-47
2022/10/22 02:00:14;;;;;;;67.80;62.97;;;;;;;13.64;100.00;100872.69;5050431;28;20946;-46
2022/10/22 02:02:49;;;;;;;62.93;58.50;;;;;;;13.63;100.00;100870.22;5050729;28;20916;-47
2022/10/22 02:05:22;;;;;;;67.87;62.87;;;;;;;13.63;100.00;100864.84;5053998;28;20460;-46
2022/10/22 02:07:57;;;;;;;70.60;64.67;;;;;;;13.62;100.00;100864.03;5054811;28;20844;-45
2022/10/22 02:10:25;;;;;;;67.17;61.77;;;;;;;13.61;100.00;100865.09;5054096;28;20519;-46
2022/10/22 02:12:55;;;;;;;66.10;60.30;;;;;;;13.58;100.00;100860.16;5054170;28;20493;-51
2022/10/22 02:15:27;;;;;;;63.77;58.97;;;;;;;13.55;100.00;100868.59;5054683;28;20435;-49
2022/10/22 02:17:58;;;;;;;60.37;55.90;;;;;;;13.49;100.00;100866.78;5054590;28;20427;-49
2022/10/22 02:20:28;;;;;;;63.10;58.07;;;;;;;13.42;100.00;100874.00;5053596;28;20471;-49
2022/10/22 02:22:57;;;;;;;60.77;55.53;;;;;;;13.35;100.00;100872.41;5054141;28;20427;-47
2022/10/22 02:25:27;;;;;;;65.40;59.47;;;;;;;13.26;100.00;100869.94;5054063;28;20435;-49
2022/10/22 02:28:02;;;;;;;79.80;71.10;;;;;;;13.20;100.00;100881.50;5054184;28;20424;-51
2022/10/22 02:30:33;;;;;;;68.63;62.10;;;;;;;13.15;100.00;100875.94;5053773;28;20466;-48
2022/10/22 02:33:05;;;;;;;87.90;68.47;;;;;;;13.10;100.00;100880.28;5054054;28;20458;-46
2022/10/22 02:35:33;;;;;;;76.10;67.53;;;;;;;13.05;100.00;100878.19;5054210;28;20945;-47
2022/10/22 02:38:01;;;;;;;75.53;65.50;;;;;;;13.01;100.00;100879.66;5053949;28;21319;-47
2022/10/22 02:40:31;;;;;;;74.00;66.30;;;;;;;13.01;100.00;100886.88;5053504;28;20521;-47
2022/10/22 02:42:58;;;;;;;65.73;60.03;;;;;;;13.00;100.00;100882.53;5053736;28;20427;-49
2022/10/22 02:45:27;;;;;;;74.80;66.00;;;;;;;12.99;100.00;100887.06;5053963;28;20998;-51
2022/10/22 02:47:55;;;;;;;70.50;62.93;;;;;;;12.97;100.00;100883.78;5054301;28;20524;-50
2022/10/22 02:50:23;;;;;;;66.90;60.20;;;;;;;12.98;100.00;100887.28;5053175;28;20463;-48
2022/10/22 02:52:51;;;;;;;70.00;63.23;;;;;;;12.98;100.00;100889.97;5053829;28;20435;-46
2022/10/22 02:55:18;;;;;;;80.00;72.00;;;;;;;12.98;100.00;100896.13;5053913;28;20431;-45
2022/10/22 02:57:46;;;;;;;98.93;71.37;;;;;;;12.97;100.00;100890.97;5053868;28;20431;-46
2022/10/22 03:00:14;;;;;;;72.33;66.23;;;;;;;12.95;100.00;100885.84;5053170;28;20466;-47
2022/10/22 03:02:42;;;;;;;72.30;64.27;;;;;;;12.95;100.00;100879.66;5053463;28;20438;-46
2022/10/22 03:05:11;;;;;;;72.90;65.30;;;;;;;12.89;100.00;100873.31;5053599;28;20439;-48
2022/10/22 03:07:38;;;;;;;77.30;68.87;;;;;;;12.85;100.00;100880.09;5053522;28;20988;-45
2022/10/22 03:10:07;;;;;;;74.03;66.43;;;;;;;12.77;100.00;100880.31;5053219;28;20546;-51
2022/10/22 03:12:35;;;;;;;70.60;63.40;;;;;;;12.72;100.00;100882.78;5053258;28;20447;-48
2022/10/22 03:15:03;;;;;;;76.53;68.33;;;;;;;12.66;100.00;100880.94;5052834;28;20485;-50
2022/10/22 03:17:30;;;;;;;69.90;63.03;;;;;;;12.60;100.00;100885.25;5053109;28;20419;-46
2022/10/22 03:19:58;;;;;;;69.53;62.43;;;;;;;12.54;100.00;100893.28;5052834;28;20883;-47
2022/10/22 03:22:29;;;;;;;73.53;65.17;;;;;;;12.49;100.00;100888.53;5052794;28;20517;-49
2022/10/22 03:25:00;;;;;;;72.30;64.40;;;;;;;12.46;100.00;100880.09;5053352;28;20435;-46
2022/10/22 03:27:29;;;;;;;78.80;61.83;;;;;;;12.40;100.00;100884.41;5053151;28;20540;-46
2022/10/22 03:29:58;;;;;;;289.20;73.10;;;;;;;12.34;100.00;100887.91;5052524;28;20497;-48
2022/10/22 03:32:26;;;;;;;192.53;69.20;;;;;;;12.27;100.00;100883.59;5052953;28;20509;-47
2022/10/22 03:34:53;;;;;;;75.90;60.80;;;;;;;12.20;100.00;100884.41;5053180;28;20439;-48
2022/10/22 03:37:22;;;;;;;151.10;69.47;;;;;;;12.17;100.00;100892.00;5053078;28;20457;-51
2022/10/22 03:39:51;;;;;;;122.47;64.27;;;;;;;12.13;100.00;100907.63;5052418;28;20464;-46
2022/10/22 03:42:20;;;;;;;68.40;61.83;;;;;;;12.10;100.00;100909.88;5052454;28;20565;-47
2022/10/22 03:44:47;;;;;;;90.80;66.53;;;;;;;12.09;100.00;100908.25;5052802;28;20508;-46
2022/10/22 03:47:15;;;;;;;130.73;69.10;;;;;;;12.08;100.00;100911.94;5052868;28;20475;-48
2022/10/22 03:49:43;;;;;;;132.23;68.87;;;;;;;12.10;100.00;100909.88;5052428;28;20501;-46
2022/10/22 03:52:13;;;;;;;74.53;66.27;;;;;;;12.11;100.00;100912.38;5052296;28;20951;-47
2022/10/22 03:54:41;;;;;;;436.13;99.50;;;;;;;12.13;100.00;100901.47;5052634;28;20432;-50
2022/10/22 03:57:11;;;;;;;409.27;96.30;;;;;;;12.15;100.00;100907.44;5052425;28;20432;-47
2022/10/22 03:59:41;;;;;;;319.07;89.13;;;;;;;12.16;100.00;100917.09;5052061;28;20513;-48
2022/10/22 04:02:09;;;;;;;289.70;93.20;;;;;;;12.17;100.00;100902.72;5052577;28;20824;-48
2022/10/22 04:04:37;;;;;;;212.03;89.37;;;;;;;12.18;100.00;100913.19;5052630;28;20446;-48
2022/10/22 04:07:06;;;;;;;139.97;78.50;;;;;;;12.22;100.00;100908.25;5052397;28;20470;-47
2022/10/22 04:09:34;;;;;;;95.80;77.97;;;;;;;12.25;100.00;100923.91;5051768;28;20493;-46
2022/10/22 04:12:04;;;;;;;153.70;83.33;;;;;;;12.29;100.00;100917.13;5052214;28;20511;-48
2022/10/22 04:14:33;;;;;;;349.63;108.50;;;;;;;12.33;100.00;100922.91;5052423;28;20457;-47
2022/10/22 04:17:01;;;;;;;239.17;98.53;;;;;;;12.36;100.00;100926.00;5052259;28;20427;-48
2022/10/22 04:19:29;;;;;;;100.30;90.83;;;;;;;12.39;100.00;100933.59;5051731;28;21003;-45
2022/10/22 04:21:58;;;;;;;236.47;104.07;;;;;;;12.42;100.00;100930.53;5051617;28;20513;-49
2022/10/22 04:24:26;;;;;;;110.00;98.67;;;;;;;12.47;100.00;100927.22;5052025;28;20951;-45
2022/10/22 04:26:54;;;;;;;383.60;122.97;;;;;;;12.48;100.00;100937.75;5052112;28;20525;-45
2022/10/22 04:29:22;;;;;;;152.40;117.13;;;;;;;12.53;100.00;100934.44;5051626;28;20455;-48
2022/10/22 04:31:51;;;;;;;293.70;127.43;;;;;;;12.56;100.00;100942.88;5051762;28;20447;-48
2022/10/22 04:34:18;;;;;;;226.30;126.80;;;;;;;12.59;100.00;100947.00;5052004;28;20435;-47
2022/10/22 04:36:46;;;;;;;131.43;121.20;;;;;;;12.63;100.00;100949.03;5051794;28;20427;-47
2022/10/22 04:39:14;;;;;;;178.53;127.40;;;;;;;12.65;100.00;100947.00;5051504;28;20516;-46
2022/10/22 04:41:42;;;;;;;478.30;159.30;;;;;;;12.69;100.00;100956.25;5051616;28;20447;-47
2022/10/22 04:44:09;;;;;;;179.77;124.27;;;;;;;12.72;100.00;100955.03;5051913;28;20428;-46
2022/10/22 04:46:43;;;;;;;214.77;133.37;;;;;;;12.74;100.00;100953.81;5051797;28;20428;-46
2022/10/22 04:49:12;;;;;;;351.10;146.67;;;;;;;12.78;100.00;100955.03;5051165;28;20456;-48
2022/10/22 04:51:40;;;;;;;138.53;126.37;;;;;;;12.81;100.00;100950.31;5051599;28;20455;-45
2022/10/22 04:54:07;;;;;;;517.77;167.10;;;;;;;12.84;100.00;100950.72;5050556;28;20500;-48
2022/10/22 04:56:35;;;;;;;290.17;144.20;;;;;;;12.85;100.00;100948.84;5051639;28;20998;-47
2022/10/22 04:59:04;;;;;;;526.53;164.10;;;;;;;12.87;100.00;100952.16;5051195;28;20513;-47
2022/10/22 05:01:35;;;;;;;540.90;164.90;;;;;;;12.89;100.00;100947.41;5051154;28;20734;-47
2022/10/22 05:04:13;;;;;;;820.83;215.27;;;;;;;12.90;100.00;100939.19;5051771;28;20435;-46
2022/10/22 05:06:41;;;;;;;553.17;166.87;;;;;;;12.90;100.00;100939.19;5051576;28;20423;-49
2022/10/22 05:09:13;;;;;;;532.37;186.83;;;;;;;12.91;100.00;100931.97;5050672;28;20474;-49
2022/10/22 05:11:47;;;;;;;718.47;213.53;;;;;;;12.90;100.00;100935.69;5051378;28;20447;-46
2022/10/22 05:14:16;;;;;;;418.70;174.20;;;;;;;12.89;100.00;100928.69;5051372;28;20446;-49
2022/10/22 05:16:46;;;;;;;530.50;188.03;;;;;;;12.88;100.00;100930.53;5051655;28;20485;-46
2022/10/22 05:19:19;;;;;;;721.30;223.63;;;;;;;12.87;100.00;100925.41;5050938;28;20463;-46
2022/10/22 05:21:47;;;;;;;597.30;205.23;;;;;;;12.86;100.00;100921.06;5050284;28;20463;-45
2022/10/22 05:24:15;;;;;;;980.20;264.37;;;;;;;12.84;100.00;100932.00;5050830;28;20431;-46
2022/10/22 05:26:42;;;;;;;187.27;167.93;;;;;;;12.85;100.00;100930.94;5051267;28;20427;-45
2022/10/22 05:29:10;;;;;;;185.03;170.03;;;;;;;12.85;100.00;100936.28;5050733;28;20459;-47
2022/10/22 05:31:37;;;;;;;193.70;173.60;;;;;;;12.86;100.00;100942.47;5051148;28;20509;-49
2022/10/22 05:34:05;;;;;;;251.70;174.77;;;;;;;12.86;100.00;100942.47;5051436;28;20485;-46
2022/10/22 05:36:34;;;;;;;629.80;232.50;;;;;;;12.85;100.00;100947.00;5051234;28;20493;-47
2022/10/22 05:39:02;;;;;;;254.03;196.93;;;;;;;12.85;100.00;100940.81;5051470;28;20520;-46
2022/10/22 05:41:29;;;;;;;628.80;240.53;;;;;;;12.84;100.00;100939.19;5055023;28;20455;-49
2022/10/22 05:43:58;;;;;;;379.30;216.70;;;;;;;12.81;100.00;100936.94;5055250;28;20436;-47
2022/10/22 05:46:28;;;;;;;667.53;255.60;;;;;;;12.80;100.00;100945.97;5054626;28;20431;-46
2022/10/22 05:48:57;;;;;;;253.63;209.80;;;;;;;12.79;100.00;100942.47;5054657;28;20525;-50
2022/10/22 05:51:27;;;;;;;230.73;213.90;;;;;;;12.79;100.00;100942.47;5054624;28;20446;-46
2022/10/22 05:53:58;;;;;;;670.83;271.13;;;;;;;12.77;100.00;100937.34;5054857;28;20485;-46
2022/10/22 05:56:27;;;;;;;631.93;263.87;;;;;;;12.78;100.00;100935.50;5054946;28;20451;-46
2022/10/22 05:58:56;;;;;;;507.80;240.77;;;;;;;12.77;100.00;100940.00;5053291;28;20459;-45
2022/10/22 06:01:26;;;;;;;252.63;231.50;;;;;;;12.77;100.00;100948.03;5054491;28;20813;-45
2022/10/22 06:03:54;;;;;;;527.63;246.17;;;;;;;12.79;100.00;100947.81;5054908;28;20447;-48
2022/10/22 06:06:27;;;;;;;786.17;297.63;;;;;;;12.81;100.00;100950.31;5054694;28;20439;-46
2022/10/22 06:08:59;;;;;;;299.13;237.90;;;;;;;12.81;100.00;100958.34;5050940;28;20467;-45
2022/10/22 06:11:27;;;;;;;294.40;235.83;;;;;;;12.84;100.00;100957.94;5052628;28;20486;-46
2022/10/22 06:14:00;;;;;;;416.20;249.70;;;;;;;12.85;100.00;100959.56;5053731;28;20860;-47
2022/10/22 06:16:28;;;;;;;247.57;232.43;;;;;;;12.86;100.00;100959.38;5053291;28;20431;-47
2022/10/22 06:18:56;;;;;;;865.97;306.00;;;;;;;12.87;100.00;100965.53;5053504;28;21053;-48
2022/10/22 06:21:23;;;;;;;704.17;285.77;;;;;;;12.88;100.00;100976.03;5052452;28;20459;-49
2022/10/22 06:23:51;;;;;;;658.03;289.70;;;;;;;12.89;100.00;100971.50;5043920;28;20493;-46
2022/10/22 06:26:20;;;;;;;273.37;253.10;;;;;;;12.92;100.00;100977.28;5053900;28;20423;-48
2022/10/22 06:28:48;;;;;;;361.03;270.83;;;;;;;12.94;100.00;100974.38;5053376;28;20510;-46
2022/10/22 06:31:15;;;;;;;630.77;306.87;;;;;;;12.95;100.00;100981.38;5052673;28;20504;-46
2022/10/22 06:33:43;;;;;;;301.47;271.23;;;;;;;12.96;100.00;100975.00;5053297;28;20424;-45
2022/10/22 06:36:13;;;;;;;506.53;287.50;;;;;;;12.97;100.00;100979.31;5054011;28;20424;-47
2022/10/22 06:38:41;;;;;;;378.77;286.73;;;;;;;12.96;100.00;100977.69;5052884;28;20442;-46
2022/10/22 06:41:11;;;;;;;301.40;269.33;;;;;;;12.97;100.00;100984.69;5052699;28;20443;-46
2022/10/22 06:43:40;;;;;;;317.83;267.63;;;;;;;13.00;100.00;100976.22;5052540;28;20443;-49
2022/10/22 06:46:10;;;;;;;289.63;268.17;;;;;;;13.02;100.00;100982.22;5053467;28;20461;-49
2022/10/22 06:48:48;;;;;;;298.43;273.23;;;;;;;13.03;100.00;100991.88;5053304;28;20466;-46
2022/10/22 06:51:15;;;;;;;477.00;283.80;;;;;;;13.05;100.00;100998.66;5051618;28;20455;-49
2022/10/22 06:53:43;;;;;;;596.57;299.67;;;;;;;13.08;100.00;101000.97;5053364;28;20454;-47
2022/10/22 06:56:13;;;;;;;475.13;298.97;;;;;;;13.13;100.00;100998.53;5068597;28;20454;-46
2022/10/22 06:58:42;;;;;;;572.37;306.10;;;;;;;13.13;100.00;101003.03;5053223;28;20434;-45
2022/10/22 07:01:12;;;;;;;557.10;311.97;;;;;;;13.14;100.00;101007.38;5052472;28;20534;-46
2022/10/22 07:03:41;;;;;;;414.97;295.67;;;;;;;13.16;100.00;101018.69;5046464;28;20464;-46
2022/10/22 07:06:10;;;;;;;569.13;324.93;;;;;;;13.17;100.00;101015.78;5052333;28;20435;-46
2022/10/22 07:08:39;;;;;;;698.97;333.43;;;;;;;13.19;100.00;101018.28;5052409;28;20475;-47
2022/10/22 07:11:08;;;;;;;446.47;308.27;;;;;;;13.21;100.00;101014.38;5052440;28;20976;-48
2022/10/22 07:13:36;;;;;;;436.33;307.50;;;;;;;13.24;100.00;101021.16;5052258;28;20515;-46
2022/10/22 07:16:07;;;;;;;510.60;311.23;;;;;;;13.28;100.00;101027.75;5052476;28;20435;-47
2022/10/22 07:18:36;;;;;;;687.00;338.20;;;;;;;13.28;100.00;101031.25;5052653;28;20812;-49
2022/10/22 07:21:05;;;;;;;433.20;324.70;;;;;;;13.31;100.00;101030.03;5051366;28;20458;-45
2022/10/22 07:23:32;;;;;;;396.73;319.87;;;;;;;13.35;100.00;101033.13;5051927;28;20497;-50
2022/10/22 07:26:01;;;;;;;351.20;312.07;;;;;;;13.42;100.00;101024.03;5052376;28;20485;-47
2022/10/22 07:28:29;;;;;;;336.00;304.60;;;;;;;13.46;100.00;101027.94;5052037;28;20836;-47
2022/10/22 07:30:57;;;;;;;575.67;275.40;;;;;;;13.52;100.00;101024.44;5051412;28;20451;-46
2022/10/22 07:33:26;;;;;;;373.63;238.83;;;;;;;13.55;100.00;101018.66;5052061;28;20435;-47
2022/10/22 07:35:57;;;;;;;324.10;232.50;;;;;;;13.59;100.00;101019.06;5052073;28;20494;-47
2022/10/22 07:38:25;;;;;;;411.33;247.03;;;;;;;13.64;100.00;101029.97;5052685;28;20485;-50
2022/10/22 07:40:53;;;;;;;416.73;250.53;;;;;;;13.67;100.00;101029.56;5051164;28;20455;-51
2022/10/22 07:43:21;;;;;;;354.60;268.40;;;;;;;13.71;100.00;101028.91;5051881;28;20435;-46
2022/10/22 07:45:49;;;;;;;277.27;249.17;;;;;;;13.72;100.00;101030.56;5051743;28;21188;-49
2022/10/22 07:48:17;;;;;;;429.40;264.50;;;;;;;13.80;100.00;101032.19;5049649;28;20436;-46
2022/10/22 07:50:46;;;;;;;309.87;248.30;;;;;;;13.83;100.00;101037.13;5048178;28;20579;-46
2022/10/22 07:53:13;;;;;;;432.43;270.03;;;;;;;13.85;100.00;101043.94;5050787;28;20432;-46
2022/10/22 07:55:41;;;;;;;322.70;254.97;;;;;;;13.92;100.00;101043.09;5051491;28;20431;-48
2022/10/22 07:58:09;;;;;;;429.50;281.60;;;;;;;13.96;100.00;101053.19;5051414;28;20435;-47
2022/10/22 08:00:37;;;;;;;280.87;253.47;;;;;;;14.00;100.00;101050.91;5050754;28;20470;-49
2022/10/22 08:03:04;;;;;;;288.97;257.87;;;;;;;13.97;100.00;101043.28;5050599;28;20443;-48
2022/10/22 08:05:32;;;;;;;352.47;264.10;;;;;;;14.05;100.00;101037.69;5051443;28;20500;-47
2022/10/22 08:08:01;;;;;;;280.20;250.17;;;;;;;14.08;100.00;101040.78;5051195;28;20426;-48
2022/10/22 08:10:28;;;;;;;610.23;292.23;;;;;;;14.11;100.00;101036.84;5050612;28;20996;-46
2022/10/22 08:12:56;;;;;;;281.40;254.87;;;;;;;14.15;100.00;101046.13;5050583;28;20465;-47
2022/10/22 08:15:26;;;;;;;292.73;263.53;;;;;;;14.23;100.00;101043.19;5051065;28;20438;-49
2022/10/22 08:17:53;;;;;;;532.73;292.27;;;;;;;14.31;100.00;101041.06;5050916;28;20435;-49
2022/10/22 08:20:21;;;;;;;544.97;298.87;;;;;;;14.36;100.00;101040.47;5050108;28;20453;-50
2022/10/22 08:22:49;;;;;;;389.90;278.13;;;;;;;14.49;100.00;101055.66;5050244;28;20933;-47
2022/10/22 08:25:18;;;;;;;286.17;263.80;;;;;;;14.57;100.00;101048.22;5050624;28;20439;-48
2022/10/22 08:27:46;;;;;;;284.17;264.97;;;;;;;14.72;100.00;101067.53;5050703;28;20484;-46
2022/10/22 08:30:14;;;;;;;277.83;260.03;;;;;;;14.77;100.00;101070.38;5049571;28;20480;-48
2022/10/22 08:32:42;;;;;;;262.33;250.00;;;;;;;14.81;100.00;101081.53;5050088;28;20420;-51
2022/10/22 08:35:10;;;;;;;279.20;258.27;;;;;;;14.77;100.00;101089.19;5050069;28;20497;-50
2022/10/22 08:37:43;;;;;;;284.37;263.23;;;;;;;14.82;100.00;101083.16;5050604;28;20471;-47
2022/10/22 08:40:23;;;;;;;260.53;247.20;;;;;;;14.80;100.00;101086.06;5044383;28;20460;-47
2022/10/22 08:43:17;;;;;;;283.17;264.73;;;;;;;14.81;100.00;101079.63;5049382;28;20435;-45
2022/10/22 08:45:56;;;;;;;277.87;261.30;;;;;;;14.78;100.00;101098.06;5048553;28;20948;-46
2022/10/22 08:48:39;;;;;;;275.47;255.93;;;;;;;14.80;100.00;101087.94;5049925;28;20427;-46
2022/10/22 08:51:12;;;;;;;267.83;254.47;;;;;;;14.85;100.00;101091.59;5049454;28;20883;-49
2022/10/22 08:53:50;;;;;;;267.87;254.77;;;;;;;14.85;100.00;101093.47;5049852;28;20435;-47
2022/10/22 08:56:22;;;;;;;267.97;254.50;;;;;;;14.87;100.00;101094.88;5045799;28;20457;-47
2022/10/22 08:58:56;;;;;;;261.27;247.03;;;;;;;14.89;100.00;101090.16;5049736;28;20509;-49
2022/10/22 09:01:32;;;;;;;253.10;239.03;;;;;;;14.92;100.00;101097.78;5048968;28;20516;-46
2022/10/22 09:04:07;;;;;;;237.97;226.27;;;;;;;14.99;100.00;101092.38;5050248;28;20520;-46
2022/10/22 09:06:37;;;;;;;220.70;208.47;;;;;;;15.05;100.00;101099.56;5049894;28;20431;-49
2022/10/22 09:09:12;;;;;;;209.57;198.77;;;;;;;15.16;100.00;101098.03;5049780;28;20474;-46
2022/10/22 09:11:45;;;;;;;188.03;177.50;;;;;;;15.24;100.00;101100.44;5049408;28;20478;-49
2022/10/22 09:14:17;;;;;;;168.73;159.27;;;;;;;15.27;100.00;101100.81;5052314;28;20427;-47
2022/10/22 09:17:05;;;;;;;154.23;145.43;;;;;;;15.28;100.00;101098.97;5053985;28;20430;-48
2022/10/22 09:19:40;;;;;;;144.70;136.87;;;;;;;15.26;100.00;101093.78;5053715;28;20455;-47
2022/10/22 09:22:18;;;;;;;134.73;126.43;;;;;;;15.29;100.00;101087.97;5053436;28;20508;-48
2022/10/22 09:24:48;;;;;;;118.87;110.67;;;;;;;15.23;100.00;101085.38;5054119;28;20439;-46
2022/10/22 09:27:19;;;;;;;107.17;99.37;;;;;;;15.31;100.00;101080.53;5054324;28;20501;-49
2022/10/22 09:29:48;;;;;;;94.43;87.37;;;;;;;15.31;100.00;101082.41;5052621;28;20564;-46
2022/10/22 09:32:17;;;;;;;89.13;81.77;;;;;;;15.47;100.00;101089.97;5053460;28;20509;-49
2022/10/22 09:34:45;;;;;;;75.80;69.70;;;;;;;15.54;100.00;101088.03;5054081;28;20447;-48
2022/10/22 09:37:17;;;;;;;69.10;63.40;;;;;;;15.62;100.00;101089.63;5054372;28;20457;-47
2022/10/22 09:39:47;;;;;;;71.27;64.87;;;;;;;15.69;100.00;101101.94;5053335;28;20593;-45
2022/10/22 09:42:18;;;;;;;64.13;58.83;;;;;;;15.81;100.00;101097.47;5053661;28;20516;-49
2022/10/22 09:44:52;;;;;;;66.23;60.83;;;;;;;15.86;100.00;101091.44;5052206;28;20940;-50
2022/10/22 09:47:32;;;;;;;65.07;59.47;;;;;;;16.00;100.00;101101.84;5054221;28;20489;-46
2022/10/22 09:50:22;;;;;;;61.57;56.50;;;;;;;16.13;100.00;101092.78;5052761;28;20486;-46
2022/10/22 09:52:58;;;;;;;63.40;57.93;;;;;;;16.21;100.00;101105.13;5053080;28;20427;-45
2022/10/22 09:55:26;;;;;;;62.60;57.10;;;;;;;16.26;100.00;101102.59;5053393;28;20438;-45
2022/10/22 09:57:56;;;;;;;59.80;54.80;;;;;;;16.18;100.00;101098.34;5053438;28;20484;-48
2022/10/22 10:00:27;;;;;;;57.87;53.03;;;;;;;16.28;100.00;101103.16;5052775;28;20828;-46
2022/10/22 10:02:56;;;;;;;61.83;56.77;;;;;;;16.21;100.00;101102.44;5052580;28;20508;-47
2022/10/22 10:05:29;;;;;;;61.77;56.67;;;;;;;16.40;100.00;101101.38;5053026;28;20470;-46
2022/10/22 10:07:57;;;;;;;59.90;54.90;;;;;;;16.65;100.00;101101.28;5052679;28;20492;-50
2022/10/22 10:10:43;;;;;;;57.53;53.00;;;;;;;16.74;100.00;101106.16;5052590;28;20471;-45
2022/10/22 10:13:28;;;;;;;61.60;56.20;;;;;;;17.02;100.00;101098.25;5052324;28;20480;-47
2022/10/22 10:16:00;;;;;;;60.20;55.20;;;;;;;17.15;100.00;101108.03;5053115;28;20426;-46
2022/10/22 10:18:42;;;;;;;62.93;57.97;;;;;;;17.24;100.00;101093.16;5052237;28;20431;-48
2022/10/22 10:21:18;;;;;;;62.10;56.80;;;;;;;17.45;100.00;101105.28;5052169;28;20462;-48
2022/10/22 10:23:56;;;;;;;58.33;54.00;;;;;;;17.55;100.00;101098.28;5053099;28;20793;-46
2022/10/22 10:26:31;;;;;;;63.07;58.07;;;;;;;17.79;100.00;101101.00;5052725;28;20427;-49
2022/10/22 10:29:14;;;;;;;61.97;57.10;;;;;;;17.84;100.00;101098.41;5051583;28;21066;-49
2022/10/22 10:31:56;;;;;;;61.03;56.13;;;;;;;17.91;100.00;101089.16;5052000;28;20493;-49
2022/10/22 10:34:36;;;;;;;61.30;56.40;;;;;;;17.86;100.00;101091.72;5052877;28;20790;-46
2022/10/22 10:37:15;;;;;;;62.63;57.80;;;;;;;17.79;100.00;101090.19;5052738;28;20508;-48
2022/10/22 10:39:55;;;;;;;60.03;55.13;;;;;;;17.83;100.00;101094.88;5052528;28;20581;-46
2022/10/22 10:42:33;;;;;;;59.60;55.20;;;;;;;17.93;100.00;101096.97;5051827;28;20451;-46
2022/10/22 10:45:15;;;;;;;64.00;59.17;;;;;;;18.06;100.00;101094.06;5051954;28;20442;-49
2022/10/22 10:48:10;;;;;;;60.77;55.90;;;;;;;18.19;100.00;101096.47;5052569;28;20427;-46
2022/10/22 10:50:48;;;;;;;60.40;55.77;;;;;;;18.29;100.00;101094.00;5051679;28;20475;-46
2022/10/22 10:53:22;;;;;;;60.93;55.63;;;;;;;18.41;100.00;101093.97;5052041;28;21175;-47
2022/10/22 10:55:59;;;;;;;57.83;53.77;;;;;;;18.52;100.00;101093.13;5052223;28;20457;-48
2022/10/22 10:58:36;;;;;;;62.53;57.83;;;;;;;18.55;100.00;101087.25;5051375;28;20476;-46
2022/10/22 11:01:18;;;;;;;59.13;54.97;;;;;;;18.62;100.00;101088.75;5051559;28;20447;-49
2022/10/22 11:04:11;;;;;;;60.80;56.13;;;;;;;18.67;100.00;101088.03;5052154;28;20427;-50
2022/10/22 11:06:39;;;;;;;58.53;54.03;;;;;;;18.65;100.00;101092.84;5052214;28;20427;-47
2022/10/22 11:09:23;;;;;;;55.43;51.20;;;;;;;18.76;100.00;101091.97;5051480;28;21191;-47
2022/10/22 11:11:54;;;;;;;56.60;52.53;;;;;;;18.76;100.00;101098.22;5050920;28;20478;-49